createdAt,value
2023-05-15T00:04:47.621Z,100082.92
2023-05-15T00:09:51.143Z,100074.25
2023-05-15T00:14:54.383Z,100070.27
2023-05-15T00:19:59.330Z,100066.23
2023-05-15T00:25:02.540Z,100059.89
2023-05-15T00:30:07.262Z,100057.90
2023-05-15T00:35:10.573Z,100053.45
2023-05-15T00:40:20.752Z,100047.90
2023-05-15T00:45:26.112Z,100045.93
2023-05-15T00:50:30.862Z,100040.14
2023-05-15T00:55:36.039Z,100045.74
2023-05-15T01:00:39.973Z,100062.39
2023-05-15T01:05:45.193Z,100053.00
2023-05-15T01:10:50.296Z,100037.96
2023-05-15T01:15:55.571Z,100037.25
2023-05-15T01:21:02.009Z,100031.83
2023-05-15T01:26:24.353Z,100007.51
2023-05-15T01:31:50.922Z,100006.29
2023-05-15T01:37:00.909Z,100005.31
2023-05-15T01:42:10.974Z,100007.60
2023-05-15T01:47:18.158Z,99994.77
2023-05-15T01:52:27.967Z,99989.33
2023-05-15T01:57:32.161Z,99975.55
2023-05-15T02:02:36.522Z,99975.70
2023-05-15T02:07:42.664Z,99984.23
2023-05-15T02:12:46.944Z,99989.50
2023-05-15T02:17:50.999Z,99973.02
2023-05-15T02:22:54.353Z,99967.09
2023-05-15T02:28:01.847Z,99964.42
2023-05-15T02:33:13.330Z,99950.00
2023-05-15T02:38:19.204Z,99940.30
2023-05-15T02:43:23.038Z,99920.67
2023-05-15T02:48:27.182Z,99906.99
2023-05-15T02:53:31.117Z,99905.95
2023-05-15T02:58:35.168Z,99894.86
2023-05-15T03:03:38.527Z,99894.12
2023-05-15T03:08:41.929Z,99893.14
2023-05-15T03:13:45.144Z,99879.21
2023-05-15T03:18:48.392Z,99874.42
2023-05-15T03:23:51.623Z,99863.83
2023-05-15T03:28:55.258Z,99847.64
2023-05-15T03:33:58.476Z,99841.30
2023-05-15T03:39:01.792Z,99827.70
2023-05-15T03:44:05.353Z,99819.59
2023-05-15T03:49:08.863Z,99828.38
2023-05-15T03:54:12.149Z,99830.73
2023-05-15T03:59:15.617Z,99830.59
2023-05-15T04:04:18.881Z,99817.30
2023-05-15T04:09:22.187Z,99801.21
2023-05-15T04:14:25.598Z,99791.10
2023-05-15T04:19:28.840Z,99778.80
2023-05-15T04:24:32.208Z,99778.83
2023-05-15T04:29:35.746Z,99779.71
2023-05-15T04:34:39.149Z,99785.41
2023-05-15T04:39:42.429Z,99788.39
2023-05-15T04:44:45.907Z,99779.93
2023-05-15T04:49:50.294Z,99779.70
2023-05-15T04:54:55.801Z,99773.38
2023-05-15T04:59:59.327Z,99765.22
2023-05-15T05:05:02.941Z,99761.38
2023-05-15T05:10:07.189Z,99758.05
2023-05-15T05:15:10.940Z,99743.70
2023-05-15T05:20:14.299Z,99733.27
2023-05-15T05:25:17.562Z,99734.58
2023-05-15T05:30:22.472Z,99732.08
2023-05-15T05:35:28.045Z,99729.74
2023-05-15T05:40:31.762Z,99725.41
2023-05-15T05:45:34.953Z,99730.48
2023-05-15T05:50:38.542Z,99734.66
2023-05-15T05:55:45.449Z,99735.04
2023-05-15T06:00:48.957Z,99737.96
2023-05-15T06:05:53.027Z,99740.66
2023-05-15T06:10:56.439Z,99746.40
2023-05-15T06:15:59.719Z,99749.51
2023-05-15T06:21:03.561Z,99756.41
2023-05-15T06:26:06.938Z,99755.14
2023-05-15T06:31:10.577Z,99756.38
2023-05-15T06:36:13.899Z,99757.81
2023-05-15T06:41:17.207Z,99759.45
2023-05-15T06:46:21.144Z,99759.93
2023-05-15T06:51:24.654Z,99753.78
2023-05-15T06:56:27.819Z,99753.58
2023-05-15T07:01:32.230Z,99746.88
2023-05-15T07:06:36.477Z,99745.06
2023-05-15T07:11:40.481Z,99750.86
2023-05-15T07:16:43.808Z,99742.69
2023-05-15T07:21:47.348Z,99740.05
2023-05-15T07:32:01.589Z,99742.15
2023-05-15T07:37:05.080Z,99735.98
2023-05-15T07:42:08.594Z,99724.34
2023-05-15T07:47:11.977Z,99722.95
2023-05-15T07:52:15.434Z,99719.21
2023-05-15T07:57:18.713Z,99716.98
2023-05-15T08:02:22.152Z,99701.08
2023-05-15T08:07:26.025Z,99699.64
2023-05-15T08:12:29.414Z,99697.31
2023-05-15T08:17:32.899Z,99696.20
2023-05-15T08:22:36.703Z,99689.80
2023-05-15T08:27:40.126Z,99692.14
2023-05-15T08:32:45.941Z,99688.39
2023-05-15T08:37:49.336Z,99682.38
2023-05-15T08:42:58.885Z,99672.86
2023-05-15T08:48:06.689Z,99666.00
2023-05-15T08:53:14.321Z,99648.34
2023-05-15T08:58:17.716Z,99648.46
2023-05-15T09:03:23.645Z,99651.08
2023-05-15T09:08:30.628Z,99658.85
2023-05-15T09:13:34.529Z,99668.30
2023-05-15T09:18:39.541Z,99661.61
2023-05-15T09:23:43.296Z,99653.86
2023-05-15T09:28:46.722Z,99645.37
2023-05-15T09:34:00.610Z,99642.60
2023-05-15T09:39:04.533Z,99635.94
2023-05-15T09:44:50.926Z,99633.52
2023-05-15T09:49:54.197Z,99635.30
2023-05-15T09:54:58.223Z,99630.14
2023-05-15T10:00:07.148Z,99620.34
2023-05-15T10:05:16.133Z,99614.17
2023-05-15T10:10:19.483Z,99617.27
2023-05-15T10:15:23.011Z,99617.25
2023-05-15T10:20:27.039Z,99622.55
2023-05-15T10:25:39.036Z,99617.73
2023-05-15T10:30:43.130Z,99622.11
2023-05-15T10:35:48.560Z,99627.91
2023-05-15T10:40:57.706Z,99636.18
2023-05-15T10:46:06.981Z,99628.58
2023-05-15T10:51:26.547Z,99623.95
2023-05-15T10:56:31.186Z,99621.41
2023-05-15T11:01:37.248Z,99614.05
2023-05-15T11:06:44.082Z,99615.53
2023-05-15T11:12:00.384Z,99610.30
2023-05-15T11:17:12.250Z,99611.64
2023-05-15T11:22:26.821Z,99614.87
2023-05-15T11:27:41.956Z,99603.95
2023-05-15T11:32:48.697Z,99601.36
2023-05-15T11:37:57.859Z,99597.14
2023-05-15T11:43:06.753Z,99591.53
2023-05-15T11:48:15.231Z,99586.80
2023-05-15T11:53:19.790Z,99579.95
2023-05-15T11:58:25.348Z,99578.64
2023-05-15T12:03:34.569Z,99581.08
2023-05-15T12:08:38.740Z,99578.02
2023-05-15T12:13:42.122Z,99572.77
2023-05-15T12:18:47.540Z,99572.91
2023-05-15T12:29:02.613Z,99571.33
2023-05-15T12:34:06.042Z,99566.55
2023-05-15T12:39:10.720Z,99558.70
2023-05-15T12:44:21.330Z,99552.79
2023-05-15T12:49:24.983Z,99541.69
2023-05-15T12:54:28.270Z,99541.02
2023-05-15T12:59:31.601Z,99534.10
2023-05-15T13:04:35.010Z,99531.29
2023-05-15T13:09:38.370Z,99523.47
2023-05-15T13:14:42.463Z,99518.60
2023-05-15T13:19:45.802Z,99508.71
2023-05-15T13:24:49.221Z,99504.69
2023-05-15T13:29:52.586Z,99507.92
2023-05-15T13:34:58.033Z,99514.51
2023-05-15T13:40:01.606Z,99503.05
2023-05-15T13:45:14.118Z,99494.83
2023-05-15T13:50:17.639Z,99496.69
2023-05-15T13:55:22.949Z,99487.19
2023-05-15T14:00:26.900Z,99475.66
2023-05-15T14:05:30.552Z,99477.39
2023-05-15T14:10:34.004Z,99478.65
2023-05-15T14:15:37.340Z,99472.23
2023-05-15T14:20:40.655Z,99471.48
2023-05-15T14:25:44.030Z,99466.77
2023-05-15T14:30:47.291Z,99459.56
2023-05-15T14:35:50.578Z,99451.84
2023-05-15T14:40:54.334Z,99463.68
2023-05-15T14:45:57.574Z,99474.80
2023-05-15T14:51:01.452Z,99462.20
2023-05-15T14:56:04.970Z,99457.10
2023-05-15T15:01:08.749Z,99460.36
2023-05-15T15:06:13.171Z,99467.44
2023-05-15T15:11:16.497Z,99477.02
2023-05-15T15:16:19.864Z,99480.39
2023-05-15T15:21:23.570Z,99479.41
2023-05-15T15:26:26.800Z,99473.06
2023-05-15T15:31:31.285Z,99466.05
2023-05-15T15:36:37.711Z,99451.30
2023-05-15T15:41:41.245Z,99450.90
2023-05-15T15:46:44.448Z,99442.45
2023-05-15T15:51:47.702Z,99434.29
2023-05-15T15:56:52.080Z,99424.52
2023-05-15T16:01:55.729Z,99428.79
2023-05-15T16:06:59.449Z,99431.42
2023-05-15T16:12:03.786Z,99423.95
2023-05-15T16:17:07.367Z,99423.08
2023-05-15T16:22:11.373Z,99426.95
2023-05-15T16:27:14.681Z,99432.88
2023-05-15T16:32:18.259Z,99433.05
2023-05-15T16:37:21.779Z,99425.16
2023-05-15T16:42:25.005Z,99415.68
2023-05-15T16:47:28.565Z,99430.97
2023-05-15T16:52:31.981Z,99435.67
2023-05-15T16:57:35.738Z,99427.08
2023-05-15T17:02:40.475Z,99437.92
2023-05-15T17:07:44.748Z,99443.07
2023-05-15T17:12:48.128Z,99435.51
2023-05-15T17:17:51.464Z,99429.23
2023-05-15T17:22:54.668Z,99431.54
2023-05-15T17:27:58.041Z,99440.83
2023-05-15T17:33:01.672Z,99435.14
2023-05-15T17:38:05.050Z,99436.54
2023-05-15T17:43:10.388Z,99430.64
2023-05-15T17:48:14.179Z,99432.90
2023-05-15T17:53:20.187Z,99451.77
2023-05-15T17:58:23.761Z,99462.77
2023-05-15T18:03:27.158Z,99452.73
2023-05-15T18:08:31.219Z,99463.27
2023-05-15T18:13:34.477Z,99468.01
2023-05-15T18:18:37.759Z,99475.80
2023-05-15T18:23:41.543Z,99493.62
2023-05-15T18:28:53.092Z,99499.40
2023-05-15T18:33:58.056Z,99514.64
2023-05-15T18:39:02.645Z,99514.42
2023-05-15T18:44:06.057Z,99511.93
2023-05-15T18:49:09.451Z,99506.59
2023-05-15T18:54:13.017Z,99514.14
2023-05-15T18:59:16.213Z,99518.13
2023-05-15T19:04:20.287Z,99523.42
2023-05-15T19:09:23.769Z,99519.19
2023-05-15T19:14:27.011Z,99516.41
2023-05-15T19:19:30.564Z,99514.60
2023-05-15T19:24:33.826Z,99509.46
2023-05-15T19:29:37.163Z,99512.65
2023-05-15T19:34:41.042Z,99512.49
2023-05-15T19:39:44.332Z,99514.35
2023-05-15T19:44:48.230Z,99516.50
2023-05-15T19:49:56.086Z,99512.64
2023-05-15T19:54:59.464Z,99503.72
2023-05-15T20:00:04.832Z,99503.87
2023-05-15T20:05:08.760Z,99501.92
2023-05-15T20:10:12.635Z,99498.63
2023-05-15T20:15:16.780Z,99507.77
2023-05-15T20:20:20.118Z,99512.36
2023-05-15T20:25:24.390Z,99509.06
2023-05-15T20:30:28.656Z,99502.87
2023-05-15T20:35:41.755Z,99508.71
2023-05-15T20:40:45.013Z,99506.28
2023-05-15T20:45:48.325Z,99506.84
2023-05-15T20:50:53.259Z,99511.97
2023-05-15T20:55:56.577Z,99508.34
2023-05-15T21:01:01.345Z,99505.94
2023-05-15T21:06:05.063Z,99502.08
2023-05-15T21:11:08.352Z,99496.55
2023-05-15T21:16:11.694Z,99492.08
2023-05-15T21:21:15.604Z,99491.50
2023-05-15T21:26:19.011Z,99496.60
2023-05-15T21:31:22.438Z,99504.79
2023-05-15T21:36:29.241Z,99501.04
2023-05-15T21:41:33.359Z,99501.23
2023-05-15T21:46:37.027Z,99504.80
2023-05-15T21:51:40.454Z,99505.06
2023-05-15T21:56:43.727Z,99504.42
2023-05-15T22:01:48.684Z,99508.84
2023-05-15T22:06:52.336Z,99517.66
2023-05-15T22:11:55.553Z,99522.96
2023-05-15T22:16:58.812Z,99523.95
2023-05-15T22:22:03.601Z,99525.23
2023-05-15T22:27:06.984Z,99528.19
2023-05-15T22:32:10.321Z,99532.84
2023-05-15T22:37:13.777Z,99539.81
2023-05-15T22:42:18.565Z,99548.09
2023-05-15T22:47:22.149Z,99550.14
2023-05-15T22:52:25.734Z,99552.48
2023-05-15T22:57:29.066Z,99546.73
2023-05-15T23:02:32.366Z,99548.33
2023-05-15T23:07:35.876Z,99547.84
2023-05-15T23:12:39.719Z,99545.97
2023-05-15T23:28:21.477Z,99539.63
2023-05-15T23:33:24.728Z,99539.39
2023-05-15T23:38:28.342Z,99539.06
2023-05-15T23:43:32.366Z,99535.06
2023-05-15T23:48:36.233Z,99534.43
2023-05-15T23:53:39.498Z,99534.06
2023-05-15T23:58:42.916Z,99533.47
